createdAt,value
2022-11-17T00:00:44.363Z,98532.47
2022-11-17T00:03:15.583Z,98533.31
2022-11-17T00:05:45.433Z,98524.91
2022-11-17T00:08:13.328Z,98523.28
2022-11-17T00:10:41.162Z,98510.78
2022-11-17T00:13:28.611Z,98499.91
2022-11-17T00:15:56.579Z,98501.03
2022-11-17T00:18:41.682Z,98498.56
2022-11-17T00:21:23.836Z,98485.25
2022-11-17T00:23:51.894Z,98491.22
2022-11-17T00:26:21.381Z,98485.78
2022-11-17T00:28:51.950Z,98470.31
2022-11-17T00:31:37.523Z,98477.38
2022-11-17T00:34:08.475Z,98485.00
2022-11-17T00:36:40.087Z,98475.50
2022-11-17T00:39:08.385Z,98471.97
2022-11-17T00:41:36.444Z,98478.28
2022-11-17T00:44:04.846Z,98473.84
2022-11-17T00:46:33.303Z,98468.44
2022-11-17T00:49:01.237Z,98459.72
2022-11-17T00:51:29.441Z,98457.00
2022-11-17T00:53:58.648Z,98452.13
2022-11-17T00:56:26.797Z,98430.94
2022-11-17T00:58:54.807Z,98431.19
2022-11-17T01:01:23.106Z,98425.75
2022-11-17T01:03:51.192Z,98407.84
2022-11-17T01:06:21.037Z,98406.47
2022-11-17T01:08:48.838Z,98404.59
2022-11-17T01:11:20.210Z,98409.19
2022-11-17T01:13:48.888Z,98404.84
2022-11-17T01:16:19.490Z,98410.56
2022-11-17T01:18:50.008Z,98404.31
2022-11-17T01:21:20.015Z,98399.97
2022-11-17T01:23:48.783Z,98395.34
2022-11-17T01:26:20.820Z,98393.16
2022-11-17T01:28:49.667Z,98391.81
2022-11-17T01:31:19.435Z,98380.97
2022-11-17T01:33:48.019Z,98381.22
2022-11-17T01:36:17.570Z,98368.19
2022-11-17T01:38:46.172Z,98374.72
2022-11-17T01:41:17.921Z,98363.56
2022-11-17T01:43:50.517Z,98357.06
2022-11-17T01:46:32.125Z,98340.50
2022-11-17T01:49:04.700Z,98345.38
2022-11-17T01:51:36.512Z,98336.94
2022-11-17T01:54:04.697Z,98340.25
2022-11-17T01:56:35.870Z,98322.84
2022-11-17T01:59:12.534Z,98323.09
2022-11-17T02:01:55.578Z,98314.69
2022-11-17T02:04:25.643Z,98296.50
2022-11-17T02:06:58.385Z,98288.38
2022-11-17T02:09:27.150Z,98291.91
2022-11-17T02:11:57.641Z,98277.22
2022-11-17T02:14:26.890Z,98272.09
2022-11-17T02:16:54.763Z,98285.91
2022-11-17T02:19:23.781Z,98289.19
2022-11-17T02:22:10.414Z,98273.16
2022-11-17T02:25:00.629Z,98277.25
2022-11-17T02:28:04.102Z,98271.78
2022-11-17T02:30:38.994Z,98247.66
2022-11-17T02:33:17.158Z,98268.00
2022-11-17T02:35:51.022Z,98260.97
2022-11-17T02:38:28.948Z,98250.63
2022-11-17T02:41:02.808Z,98256.06
2022-11-17T02:43:54.541Z,98252.25
2022-11-17T02:46:25.069Z,98233.81
2022-11-17T02:48:56.855Z,98252.00
2022-11-17T02:51:25.747Z,98238.16
2022-11-17T02:53:56.370Z,98222.41
2022-11-17T02:56:24.680Z,98211.00
2022-11-17T02:58:58.946Z,98223.75
2022-11-17T03:01:49.085Z,98235.16
2022-11-17T03:04:41.109Z,98222.94
2022-11-17T03:07:21.686Z,98221.31
2022-11-17T03:10:00.435Z,98219.97
2022-11-17T03:12:35.165Z,98216.44
2022-11-17T03:15:14.735Z,98209.91
2022-11-17T03:17:49.719Z,98201.53
2022-11-17T03:20:23.117Z,98201.25
2022-11-17T03:22:58.148Z,98201.22
2022-11-17T03:25:28.050Z,98190.09
2022-11-17T03:28:00.331Z,98200.69
2022-11-17T03:30:36.268Z,98196.91
2022-11-17T03:33:11.548Z,98186.56
2022-11-17T03:35:44.011Z,98181.16
2022-11-17T03:38:19.676Z,98164.63
2022-11-17T03:40:51.831Z,98152.94
2022-11-17T03:43:21.427Z,98165.69
2022-11-17T03:45:52.303Z,98137.19
2022-11-17T03:48:25.658Z,98155.91
2022-11-17T03:51:00.752Z,98156.19
2022-11-17T03:53:30.609Z,98156.16
2022-11-17T03:56:03.679Z,98161.06
2022-11-17T03:58:37.762Z,98152.09
2022-11-17T04:01:09.099Z,98139.63
2022-11-17T04:03:38.245Z,98143.16
2022-11-17T04:06:06.787Z,98143.72
2022-11-17T04:08:34.526Z,98137.72
2022-11-17T04:11:19.784Z,98130.13
2022-11-17T04:14:05.275Z,98121.69
2022-11-17T04:16:34.379Z,98134.69
2022-11-17T04:19:02.094Z,98122.50
2022-11-17T04:21:29.787Z,98127.63
2022-11-17T04:23:57.871Z,98110.78
2022-11-17T04:26:43.714Z,98128.69
2022-11-17T04:29:11.471Z,98122.47
2022-11-17T04:31:40.642Z,98120.84
2022-11-17T04:34:08.357Z,98128.41
2022-11-17T04:36:40.519Z,98123.81
2022-11-17T04:39:08.278Z,98117.31
2022-11-17T04:41:53.780Z,98122.63
2022-11-17T04:44:23.410Z,98128.06
2022-11-17T04:46:53.007Z,98125.13
2022-11-17T04:49:21.755Z,98116.72
2022-11-17T04:51:50.151Z,98132.22
2022-11-17T04:54:19.944Z,98134.63
2022-11-17T04:56:51.473Z,98122.94
2022-11-17T04:59:19.340Z,98127.75
2022-11-17T05:01:47.368Z,98122.34
2022-11-17T05:04:39.219Z,98112.63
2022-11-17T05:07:08.146Z,98121.78
2022-11-17T05:09:36.489Z,98116.16
2022-11-17T05:12:22.139Z,98118.25
2022-11-17T05:14:50.519Z,98110.91
2022-11-17T05:17:17.839Z,98114.16
2022-11-17T05:19:48.722Z,98105.78
2022-11-17T05:22:36.370Z,98108.47
2022-11-17T05:25:05.577Z,98123.91
2022-11-17T05:27:34.296Z,98120.72
2022-11-17T05:30:02.149Z,98120.38
2022-11-17T05:32:29.975Z,98115.44
2022-11-17T05:34:59.226Z,98127.16
2022-11-17T05:37:27.062Z,98108.22
2022-11-17T05:39:54.940Z,98115.84
2022-11-17T05:42:22.702Z,98126.19
2022-11-17T05:44:50.461Z,98129.47
2022-11-17T05:47:18.306Z,98128.09
2022-11-17T05:49:46.042Z,98115.03
2022-11-17T05:52:15.149Z,98115.56
2022-11-17T05:54:43.120Z,98119.09
2022-11-17T05:57:16.137Z,98133.22
2022-11-17T05:59:46.812Z,98130.00
2022-11-17T06:02:19.602Z,98141.69
2022-11-17T06:04:50.404Z,98139.78
2022-11-17T06:07:20.690Z,98138.69
2022-11-17T06:09:53.062Z,98144.38
2022-11-17T06:12:20.880Z,98146.84
2022-11-17T06:14:48.648Z,98149.56
2022-11-17T06:17:22.759Z,98135.16
2022-11-17T06:19:56.095Z,98137.34
2022-11-17T06:22:26.419Z,98129.72
2022-11-17T06:24:55.261Z,98121.81
2022-11-17T06:27:25.452Z,98119.69
2022-11-17T06:29:54.814Z,98126.19
2022-11-17T06:32:22.852Z,98128.66
2022-11-17T06:34:55.609Z,98119.09
2022-11-17T06:37:26.299Z,98113.97
2022-11-17T06:39:54.884Z,98119.09
2022-11-17T06:42:44.263Z,98113.97
2022-11-17T06:45:12.948Z,98112.06
2022-11-17T06:47:41.211Z,98114.25
2022-11-17T06:50:09.559Z,98122.66
2022-11-17T06:52:38.993Z,98116.94
2022-11-17T06:55:08.593Z,98121.28
2022-11-17T06:57:36.445Z,98098.47
2022-11-17T07:00:06.003Z,98103.34
2022-11-17T07:02:34.001Z,98113.13
2022-11-17T07:05:01.997Z,98103.34
2022-11-17T07:07:29.925Z,98106.66
2022-11-17T07:09:59.200Z,98091.72
2022-11-17T07:12:28.582Z,98091.97
2022-11-17T07:14:56.700Z,98104.97
2022-11-17T07:17:24.621Z,98110.94
2022-11-17T07:19:53.563Z,98097.38
2022-11-17T07:22:21.433Z,98086.25
2022-11-17T07:24:49.374Z,98088.16
2022-11-17T07:27:18.791Z,98086.31
2022-11-17T07:29:46.772Z,98096.31
2022-11-17T07:32:14.857Z,98081.13
2022-11-17T07:34:42.719Z,98086.78
2022-11-17T07:37:10.672Z,98081.09
2022-11-17T07:39:38.483Z,98079.38
2022-11-17T07:42:06.588Z,98092.38
2022-11-17T07:44:36.205Z,98068.53
2022-11-17T07:47:04.163Z,98074.75
2022-11-17T07:49:32.194Z,98081.69
2022-11-17T07:52:00.028Z,98078.47
2022-11-17T07:54:27.890Z,98067.53
2022-11-17T07:56:55.730Z,98071.00
2022-11-17T07:59:23.790Z,98075.69
2022-11-17T08:01:52.983Z,98073.22
2022-11-17T08:04:20.902Z,98068.50
2022-11-17T08:06:48.981Z,98070.16
2022-11-17T08:09:17.379Z,98070.41
2022-11-17T08:11:45.269Z,98071.00
2022-11-17T08:14:13.130Z,98069.78
2022-11-17T08:16:41.027Z,98075.22
2022-11-17T08:19:11.912Z,98062.13
2022-11-17T08:21:41.075Z,98071.34
2022-11-17T08:24:09.551Z,98070.69
2022-11-17T08:26:37.357Z,98082.06
2022-11-17T08:29:05.287Z,98070.13
2022-11-17T08:31:33.879Z,98067.88
2022-11-17T08:34:01.683Z,98078.00
2022-11-17T08:36:30.835Z,98075.03
2022-11-17T08:38:58.894Z,98069.53
2022-11-17T08:41:27.108Z,98060.28
2022-11-17T08:43:55.029Z,98068.31
2022-11-17T08:46:23.039Z,98078.41
2022-11-17T08:48:53.877Z,98060.09
2022-11-17T08:51:25.108Z,98056.22
2022-11-17T08:53:54.261Z,98060.78
2022-11-17T08:56:22.239Z,98047.63
2022-11-17T08:58:50.077Z,98059.72
2022-11-17T09:01:18.301Z,98051.03
2022-11-17T09:03:48.419Z,98047.88
2022-11-17T09:06:17.243Z,98045.44
2022-11-17T09:08:47.012Z,98048.97
2022-11-17T09:11:16.990Z,98055.53
2022-11-17T09:13:45.815Z,98061.84
2022-11-17T09:16:14.303Z,98050.09
2022-11-17T09:18:42.348Z,98065.63
2022-11-17T09:21:12.589Z,98072.28
2022-11-17T09:23:40.753Z,98085.03
2022-11-17T09:26:10.623Z,98089.13
2022-11-17T09:28:40.229Z,98072.69
2022-11-17T09:31:09.634Z,98088.03
2022-11-17T09:33:37.791Z,98111.75
2022-11-17T09:36:07.343Z,98114.19
2022-11-17T09:38:35.875Z,98122.47
2022-11-17T09:41:13.115Z,98111.69
2022-11-17T09:43:48.010Z,98128.56
2022-11-17T09:46:22.405Z,98124.84
2022-11-17T09:48:58.318Z,98130.66
2022-11-17T09:51:28.779Z,98127.09
2022-11-17T09:54:02.727Z,98132.19
2022-11-17T09:56:31.798Z,98140.84
2022-11-17T09:59:05.359Z,98145.41
2022-11-17T10:01:33.310Z,98148.34
2022-11-17T10:04:01.498Z,98137.38
2022-11-17T10:06:31.306Z,98134.41
2022-11-17T10:09:02.809Z,98148.34
2022-11-17T10:11:33.294Z,98145.47
2022-11-17T10:14:14.040Z,98145.25
2022-11-17T10:16:44.351Z,98154.59
2022-11-17T10:19:17.032Z,98160.88
2022-11-17T10:21:45.344Z,98161.56
2022-11-17T10:24:33.688Z,98154.16
2022-11-17T10:27:02.139Z,98152.94
2022-11-17T10:29:31.382Z,98156.19
2022-11-17T10:31:59.796Z,98154.34
2022-11-17T10:34:40.189Z,98166.06
2022-11-17T10:37:25.299Z,98163.03
2022-11-17T10:40:13.760Z,98169.97
2022-11-17T10:42:44.835Z,98180.72
2022-11-17T10:45:18.966Z,98181.63
2022-11-17T10:47:46.901Z,98177.41
2022-11-17T10:50:24.775Z,98159.84
2022-11-17T10:52:54.106Z,98168.31
2022-11-17T10:55:27.743Z,98168.84
2022-11-17T10:57:59.769Z,98170.00
2022-11-17T11:00:32.237Z,98167.03
2022-11-17T11:03:18.402Z,98169.34
2022-11-17T11:06:02.432Z,98173.75
2022-11-17T11:08:37.242Z,98172.47
2022-11-17T11:11:12.599Z,98158.75
2022-11-17T11:13:46.884Z,98172.38
2022-11-17T11:16:16.043Z,98172.69
2022-11-17T11:18:43.862Z,98159.97
2022-11-17T11:21:19.219Z,98162.22
2022-11-17T11:23:55.034Z,98152.16
2022-11-17T11:26:42.270Z,98156.91
2022-11-17T11:29:18.203Z,98165.22
2022-11-17T11:31:59.105Z,98174.38
2022-11-17T11:34:53.175Z,98179.13
2022-11-17T11:37:23.349Z,98172.94
2022-11-17T11:39:58.879Z,98192.84
2022-11-17T11:42:47.811Z,98185.06
2022-11-17T11:45:24.157Z,98202.00
2022-11-17T11:48:14.810Z,98205.50
2022-11-17T11:50:51.765Z,98200.69
2022-11-17T11:53:26.172Z,98194.06
2022-11-17T11:56:08.615Z,98197.13
2022-11-17T11:58:43.835Z,98193.47
2022-11-17T12:01:13.664Z,98196.88
2022-11-17T12:03:49.259Z,98206.47
2022-11-17T12:06:43.918Z,98202.81
2022-11-17T12:09:29.787Z,98201.69
2022-11-17T12:12:02.417Z,98215.63
2022-11-17T12:14:32.097Z,98198.50
2022-11-17T12:17:07.411Z,98209.19
2022-11-17T12:19:51.156Z,98215.19
2022-11-17T12:22:42.620Z,98202.41
2022-11-17T12:25:18.205Z,98206.88
2022-11-17T12:27:48.663Z,98200.94
2022-11-17T12:30:54.635Z,98196.44
2022-11-17T12:33:23.450Z,98195.78
2022-11-17T12:36:30.910Z,98206.38
2022-11-17T12:39:01.684Z,98203.81
2022-11-17T12:42:07.647Z,98220.81
2022-11-17T12:45:02.034Z,98223.75
2022-11-17T12:47:33.458Z,98220.22
2022-11-17T12:50:28.138Z,98223.59
2022-11-17T12:53:19.479Z,98218.88
2022-11-17T12:56:21.297Z,98219.88
2022-11-17T12:59:17.014Z,98215.47
2022-11-17T13:01:52.823Z,98222.81
2022-11-17T13:04:26.044Z,98228.44
2022-11-17T13:07:02.103Z,98224.63
2022-11-17T13:09:31.282Z,98232.28
2022-11-17T13:12:02.187Z,98226.72
2022-11-17T13:14:31.764Z,98233.19
2022-11-17T13:17:01.373Z,98239.59
2022-11-17T13:19:33.767Z,98224.38
2022-11-17T13:22:03.671Z,98211.50
2022-11-17T13:24:34.399Z,98225.88
2022-11-17T13:27:07.363Z,98232.56
2022-11-17T13:29:35.472Z,98224.97
2022-11-17T13:32:23.167Z,98225.72
2022-11-17T13:34:53.477Z,98231.59
2022-11-17T13:37:23.291Z,98218.44
2022-11-17T13:40:00.219Z,98240.47
2022-11-17T13:42:32.310Z,98249.69
2022-11-17T13:45:03.633Z,98246.91
2022-11-17T13:47:46.798Z,98259.53
2022-11-17T13:50:33.821Z,98259.75
2022-11-17T13:53:05.726Z,98260.53
2022-11-17T13:55:34.690Z,98268.38
2022-11-17T13:58:08.149Z,98266.91
2022-11-17T14:00:36.721Z,98268.25
2022-11-17T14:03:07.095Z,98263.91
2022-11-17T14:05:35.107Z,98274.06
2022-11-17T14:08:14.092Z,98269.91
2022-11-17T14:10:42.685Z,98267.03
2022-11-17T14:13:24.213Z,98260.19
2022-11-17T14:15:55.232Z,98263.41
2022-11-17T14:18:28.967Z,98262.38
2022-11-17T14:21:11.837Z,98261.69
2022-11-17T14:23:40.312Z,98264.13
2022-11-17T14:26:18.350Z,98260.53
2022-11-17T14:28:48.620Z,98263.91
2022-11-17T14:31:17.203Z,98262.38
2022-11-17T14:33:45.159Z,98267.84
2022-11-17T14:36:15.836Z,98265.97
2022-11-17T14:38:44.711Z,98270.91
2022-11-17T14:41:12.596Z,98282.56
2022-11-17T14:43:40.493Z,98273.19
2022-11-17T14:46:16.305Z,98281.44
2022-11-17T14:48:44.188Z,98273.66
2022-11-17T14:51:12.197Z,98278.03
2022-11-17T14:53:42.019Z,98280.97
2022-11-17T14:56:11.124Z,98277.78
2022-11-17T14:58:39.007Z,98270.59
2022-11-17T15:01:13.063Z,98268.47
2022-11-17T15:03:40.951Z,98266.31
2022-11-17T15:06:12.064Z,98275.19
2022-11-17T15:08:41.804Z,98276.88
2022-11-17T15:11:14.755Z,98276.78
2022-11-17T15:13:42.566Z,98283.47
2022-11-17T15:16:12.533Z,98274.72
2022-11-17T15:18:40.303Z,98291.91
2022-11-17T15:21:33.776Z,98307.28
2022-11-17T15:24:03.299Z,98311.97
2022-11-17T15:26:31.430Z,98306.81
2022-11-17T15:28:59.248Z,98323.38
2022-11-17T15:31:28.787Z,98323.94
2022-11-17T15:33:56.665Z,98330.19
2022-11-17T15:36:25.206Z,98327.22
2022-11-17T15:38:54.060Z,98308.16
2022-11-17T15:41:22.235Z,98302.19
2022-11-17T15:43:50.036Z,98298.59
2022-11-17T15:46:19.888Z,98314.09
2022-11-17T15:48:52.294Z,98314.91
2022-11-17T15:51:22.073Z,98301.31
2022-11-17T15:53:52.100Z,98309.50
2022-11-17T15:56:21.658Z,98314.09
2022-11-17T15:58:55.686Z,98307.31
2022-11-17T16:01:28.169Z,98310.81
2022-11-17T16:04:01.346Z,98306.22
2022-11-17T16:06:29.195Z,98308.16
2022-11-17T16:08:57.520Z,98313.59
2022-11-17T16:11:26.864Z,98310.59
2022-11-17T16:13:55.380Z,98325.03
2022-11-17T16:16:24.239Z,98312.75
2022-11-17T16:18:52.147Z,98323.38
2022-11-17T16:21:21.470Z,98322.31
2022-11-17T16:23:51.612Z,98320.94
2022-11-17T16:26:20.512Z,98315.25
2022-11-17T16:28:48.714Z,98316.31
2022-11-17T16:31:19.322Z,98330.19
2022-11-17T16:33:51.451Z,98333.47
2022-11-17T16:36:21.914Z,98336.69
2022-11-17T16:39:13.331Z,98337.22
2022-11-17T16:41:42.817Z,98348.94
2022-11-17T16:44:12.562Z,98334.00
2022-11-17T16:46:43.257Z,98348.38
2022-11-17T16:49:24.432Z,98336.72
2022-11-17T16:51:54.797Z,98333.97
2022-11-17T16:54:26.121Z,98334.25
2022-11-17T16:56:54.361Z,98343.50
2022-11-17T16:59:22.700Z,98335.34
2022-11-17T17:01:50.536Z,98336.69
2022-11-17T17:04:18.483Z,98339.66
2022-11-17T17:06:46.533Z,98347.28
2022-11-17T17:09:17.188Z,98350.53
2022-11-17T17:11:46.094Z,98343.47
2022-11-17T17:14:15.734Z,98348.63
2022-11-17T17:16:44.165Z,98358.69
2022-11-17T17:19:14.084Z,98360.03
2022-11-17T17:21:43.194Z,98371.19
2022-11-17T17:24:11.808Z,98373.66
2022-11-17T17:26:41.170Z,98355.97
2022-11-17T17:29:09.461Z,98358.44
2022-11-17T17:31:39.308Z,98358.69
2022-11-17T17:34:08.496Z,98365.22
2022-11-17T17:36:38.407Z,98366.28
2022-11-17T17:39:07.642Z,98367.09
2022-11-17T17:41:41.882Z,98366.78
2022-11-17T17:44:15.961Z,98371.41
2022-11-17T17:46:47.196Z,98367.31
2022-11-17T17:49:15.873Z,98370.53
2022-11-17T17:51:45.333Z,98366.19
2022-11-17T17:54:16.838Z,98370.22
2022-11-17T17:56:45.487Z,98369.44
2022-11-17T17:59:15.955Z,98369.38
2022-11-17T18:01:46.016Z,98374.03
2022-11-17T18:04:16.178Z,98381.34
2022-11-17T18:06:47.329Z,98383.78
2022-11-17T18:09:19.057Z,98403.88
2022-11-17T18:11:49.558Z,98392.22
2022-11-17T18:14:23.799Z,98395.44
2022-11-17T18:16:52.576Z,98380.75
2022-11-17T18:19:20.722Z,98397.03
2022-11-17T18:21:48.954Z,98372.59
2022-11-17T18:24:24.179Z,98382.16
2022-11-17T18:26:53.793Z,98383.25
2022-11-17T18:29:26.810Z,98412.91
2022-11-17T18:31:59.553Z,98407.19
2022-11-17T18:34:34.151Z,98384.09
2022-11-17T18:37:06.360Z,98417.22
2022-11-17T18:39:34.727Z,98409.59
2022-11-17T18:42:02.709Z,98413.59
2022-11-17T18:44:32.064Z,98413.22
2022-11-17T18:47:02.999Z,98423.19
2022-11-17T18:49:31.753Z,98408.19
2022-11-17T18:51:59.621Z,98417.38
2022-11-17T18:54:27.485Z,98413.50
2022-11-17T18:56:56.231Z,98391.25
2022-11-17T18:59:24.220Z,98416.31
2022-11-17T19:01:53.672Z,98418.75
2022-11-17T19:04:21.630Z,98430.53
2022-11-17T19:06:50.236Z,98418.56
2022-11-17T19:09:18.624Z,98429.56
2022-11-17T19:11:47.115Z,98415.31
2022-11-17T19:14:15.074Z,98414.66
2022-11-17T19:16:45.459Z,98404.69
2022-11-17T19:19:17.716Z,98406.75
2022-11-17T19:21:46.136Z,98403.25
2022-11-17T19:24:15.375Z,98406.22
2022-11-17T19:26:43.387Z,98399.69
2022-11-17T19:29:17.064Z,98408.38
2022-11-17T19:31:45.681Z,98377.84
2022-11-17T19:34:15.179Z,98419.97
2022-11-17T19:36:44.480Z,98425.31
2022-11-17T19:39:13.502Z,98425.00
2022-11-17T19:41:41.767Z,98404.06
2022-11-17T19:44:10.347Z,98417.72
2022-11-17T19:46:38.951Z,98421.31
2022-11-17T19:49:08.799Z,98437.34
2022-11-17T19:51:38.628Z,98432.19
2022-11-17T19:54:08.669Z,98423.44
2022-11-17T19:56:38.301Z,98446.06
2022-11-17T19:59:15.359Z,98443.94
2022-11-17T20:01:44.453Z,98444.56
2022-11-17T20:04:12.599Z,98453.53
2022-11-17T20:06:41.822Z,98457.34
2022-11-17T20:09:11.365Z,98459.25
2022-11-17T20:11:39.542Z,98464.41
2022-11-17T20:14:07.795Z,98458.25
2022-11-17T20:16:36.747Z,98460.97
2022-11-17T20:19:04.700Z,98458.81
2022-11-17T20:21:33.650Z,98449.50
2022-11-17T20:24:03.296Z,98446.66
2022-11-17T20:26:33.155Z,98440.38
2022-11-17T20:29:01.997Z,98438.75
2022-11-17T20:31:32.451Z,98436.56
2022-11-17T20:34:01.487Z,98445.00
2022-11-17T20:36:30.831Z,98442.75
2022-11-17T20:39:01.254Z,98444.66
2022-11-17T20:41:30.819Z,98453.59
2022-11-17T20:44:00.413Z,98450.50
2022-11-17T20:46:29.117Z,98451.56
2022-11-17T20:48:56.978Z,98448.31
2022-11-17T20:51:26.212Z,98465.75
2022-11-17T20:53:54.570Z,98464.28
2022-11-17T20:56:22.753Z,98459.84
2022-11-17T20:58:52.029Z,98453.09
2022-11-17T21:01:24.001Z,98473.38
2022-11-17T21:03:52.143Z,98459.28
2022-11-17T21:06:22.856Z,98469.34
2022-11-17T21:08:50.790Z,98471.34
2022-11-17T21:11:34.320Z,98490.00
2022-11-17T21:14:04.755Z,98493.59
2022-11-17T21:16:33.232Z,98488.31
2022-11-17T21:19:01.159Z,98496.13
2022-11-17T21:21:29.512Z,98489.25
2022-11-17T21:23:57.535Z,98490.22
2022-11-17T21:26:25.447Z,98507.38
2022-11-17T21:28:53.734Z,98503.59
2022-11-17T21:31:24.837Z,98491.06
2022-11-17T21:33:54.677Z,98505.25
2022-11-17T21:36:24.611Z,98509.03
2022-11-17T21:38:52.939Z,98518.78
2022-11-17T21:41:22.994Z,98514.00
2022-11-17T21:43:52.842Z,98522.13
2022-11-17T21:46:23.658Z,98512.34
2022-11-17T21:48:52.774Z,98511.13
2022-11-17T21:51:22.165Z,98515.63
2022-11-17T21:53:53.965Z,98503.16
2022-11-17T21:56:26.181Z,98508.19
2022-11-17T21:58:55.647Z,98506.56
2022-11-17T22:01:27.850Z,98505.56
2022-11-17T22:03:56.530Z,98496.88
2022-11-17T22:06:25.635Z,98505.59
2022-11-17T22:08:57.163Z,98511.91
2022-11-17T22:11:36.691Z,98508.38
2022-11-17T22:14:07.418Z,98505.81
2022-11-17T22:16:38.277Z,98506.41
2022-11-17T22:19:08.063Z,98526.03
2022-11-17T22:21:36.503Z,98526.34
2022-11-17T22:24:04.980Z,98528.19
2022-11-17T22:26:35.695Z,98537.16
2022-11-17T22:29:03.735Z,98532.59
2022-11-17T22:31:31.921Z,98532.38
2022-11-17T22:34:01.122Z,98535.72
2022-11-17T22:36:29.011Z,98530.63
2022-11-17T22:38:56.856Z,98536.88
2022-11-17T22:41:25.203Z,98533.94
2022-11-17T22:43:54.736Z,98539.38
2022-11-17T22:46:24.604Z,98528.25
2022-11-17T22:48:53.139Z,98531.28
2022-11-17T22:51:36.583Z,98534.25
2022-11-17T22:54:04.818Z,98530.53
2022-11-17T22:56:33.501Z,98528.91
2022-11-17T22:59:01.626Z,98530.97
2022-11-17T23:01:29.989Z,98535.41
2022-11-17T23:03:58.155Z,98541.66
2022-11-17T23:06:28.475Z,98531.34
2022-11-17T23:08:57.986Z,98538.72
2022-11-17T23:11:42.335Z,98526.25
2022-11-17T23:14:12.542Z,98526.25
2022-11-17T23:16:41.157Z,98535.78
2022-11-17T23:19:12.281Z,98523.84
2022-11-17T23:21:43.242Z,98530.09
2022-11-17T23:24:12.725Z,98534.47
2022-11-17T23:26:41.000Z,98524.81
2022-11-17T23:29:10.330Z,98512.38
2022-11-17T23:31:38.222Z,98517.25
2022-11-17T23:34:06.068Z,98528.97
2022-11-17T23:36:34.294Z,98523.59
2022-11-17T23:39:04.507Z,98529.41
2022-11-17T23:41:32.919Z,98536.41
2022-11-17T23:44:01.680Z,98533.41
2022-11-17T23:46:29.933Z,98538.56
2022-11-17T23:48:58.444Z,98524.97
2022-11-17T23:51:29.751Z,98542.13
2022-11-17T23:53:59.177Z,98521.69
2022-11-17T23:56:33.716Z,98530.41
2022-11-17T23:59:04.512Z,98541.66
